Wan Hai 508 — 9VJJ6 — position and weather

sailwx.info

Track history (hours):
 
Tides and Currents Weather Stations Pressure Air Temp Water Temp Dewpoint Dewpoint Depression Visibility Wind Speed Wind Dir Waves Ship Positions

Wan Hai 508

Last reported at 2016-Feb-11 08:33 UTC. Time now 2016-Feb-11 08:42 UTC.
Position N 01°14' E 103°41'.

Length 269 m; draft 8.9 m.

Type: Cargo ship. MMSI: 565567000.

Date/timePositionNaut miles runAvg speedWind from/ knotsBaromVisibWave heightAir tempDewpointWater temp
2016-Feb-11 08:33N 01°14' E 103°41'6 5.9
2016-Feb-11 07:33N 01°17' E 103°46'0 0.0
2016-Feb-11 06:29N 01°17' E 103°46'0 0.0
2016-Feb-11 05:32N 01°17' E 103°46'0 0.0
2016-Feb-11 04:29N 01°17' E 103°46'0 0.0
2016-Feb-11 03:29N 01°17' E 103°46'0 0.0
2016-Feb-11 02:26N 01°17' E 103°46'0 0.1
2016-Feb-10 23:34N 01°17' E 103°46'4 3.9
2016-Feb-10 22:27N 01°13' E 103°48'4 4.3
2016-Feb-10 21:33N 01°16' E 103°51'0 0.1
2016-Feb-10 20:31N 01°16' E 103°50'0 0.0
2016-Feb-10 19:31N 01°16' E 103°50'0 0.0
2016-Feb-10 18:31N 01°16' E 103°50'0 0.0
2016-Feb-10 17:31N 01°16' E 103°50'0 0.0
2016-Feb-10 16:31N 01°16' E 103°50'0 0.0
2016-Feb-10 15:31N 01°16' E 103°50'0 0.0
2016-Feb-10 14:31N 01°16' E 103°50'0 0.0
2016-Feb-10 13:31N 01°16' E 103°50'0 0.0
2016-Feb-10 12:31N 01°16' E 103°50'0 0.0
2016-Feb-10 11:31N 01°16' E 103°50'0 0.0
2016-Feb-10 10:31N 01°16' E 103°50'0 0.0
2016-Feb-10 09:31N 01°16' E 103°50'0 0.0
2016-Feb-10 08:33N 01°16' E 103°50'4 4.0
2016-Feb-10 07:33N 01°13' E 103°54'2 2.5
2016-Feb-10 06:33N 01°12' E 103°52'1110.8
2016-Feb-10 05:33N 01°05' E 103°43'68 9.6
2016-Feb-09 22:31N 01°39' E 102°44'1414.1
2016-Feb-09 21:30N 01°46' E 102°32'1313.9
2016-Feb-09 20:33N 01°51' E 102°20'  
Track history (hours):
 
Tides and Currents Weather Stations Pressure Air Temp Water Temp Dewpoint Dewpoint Depression Visibility Wind Speed Wind Dir Waves Ship Positions

Wan Hai 508

Last reported at 2016-Feb-11 08:33 UTC. Time now 2016-Feb-11 08:42 UTC.
Position N 01°14' E 103°41'.

Length 269 m; draft 8.9 m.

Type: Cargo ship. MMSI: 565567000.

Date/timePositionNaut miles runAvg speedWind from/ knotsBaromVisibWave heightAir tempDewpointWater temp
2016-Feb-11 08:33N 01°14' E 103°41'6 5.9
2016-Feb-11 07:33N 01°17' E 103°46'0 0.0
2016-Feb-11 06:29N 01°17' E 103°46'0 0.0
2016-Feb-11 05:32N 01°17' E 103°46'0 0.0
2016-Feb-11 04:29N 01°17' E 103°46'0 0.0
2016-Feb-11 03:29N 01°17' E 103°46'0 0.0
2016-Feb-11 02:26N 01°17' E 103°46'0 0.1
2016-Feb-10 23:34N 01°17' E 103°46'4 3.9
2016-Feb-10 22:27N 01°13' E 103°48'4 4.3
2016-Feb-10 21:33N 01°16' E 103°51'0 0.1
2016-Feb-10 20:31N 01°16' E 103°50'0 0.0
2016-Feb-10 19:31N 01°16' E 103°50'0 0.0
2016-Feb-10 18:31N 01°16' E 103°50'0 0.0
2016-Feb-10 17:31N 01°16' E 103°50'0 0.0
2016-Feb-10 16:31N 01°16' E 103°50'0 0.0
2016-Feb-10 15:31N 01°16' E 103°50'0 0.0
2016-Feb-10 14:31N 01°16' E 103°50'0 0.0
2016-Feb-10 13:31N 01°16' E 103°50'0 0.0
2016-Feb-10 12:31N 01°16' E 103°50'0 0.0
2016-Feb-10 11:31N 01°16' E 103°50'0 0.0
2016-Feb-10 10:31N 01°16' E 103°50'0 0.0
2016-Feb-10 09:31N 01°16' E 103°50'0 0.0
2016-Feb-10 08:33N 01°16' E 103°50'4 4.0
2016-Feb-10 07:33N 01°13' E 103°54'2 2.5
2016-Feb-10 06:33N 01°12' E 103°52'1110.8
2016-Feb-10 05:33N 01°05' E 103°43'68 9.6
2016-Feb-09 22:31N 01°39' E 102°44'1414.1
2016-Feb-09 21:30N 01°46' E 102°32'1313.9
2016-Feb-09 20:33N 01°51' E 102°20'  

Dump ship's entire track history